メインページ
METAR-TAF:

METAR-TAF

空港 :

トゥーレ, グリーンランド

チューレ空軍基地

緯度: 76-32N, 経度: 068-42W, 海抜: 77m

現時点の気象観測

当レポートは1時間9分前の20:56(UTC)に作成
の風 9kt
気温 -26°C
湿度 76%
気圧 996 hPa
視程10km以上
晴天

METAR: BGTL 192056Z AUTO 09009KT 9999 CLR M26/M29 A2941 RMK AO2 SLP951 T12641289 57037 TSNO $

時間: 18:05 (22:05 UTC)


TAF: 見つかりません

4,000以上の空港の気象観測と天気予報(METAR報とTAF報)

利用可能な観測所は地図上に黄色い丸と赤い丸で示す。

丸の上にカーソルを重ねると観測所名を参照できる。

次にクリックすると気象観測と天気予報を参照できる。

マップの切り替え:黒色「×」印の緑ボタンをクリックして拡大、「-」印の緑ボタンをクリックして縮小、緑色の三角印をクリックして隣りの地図に切り替え


METAR-TAF: